createdAt,value
2022-08-28T00:00:00.935Z,5.68
2022-08-28T00:02:28.046Z,5.90
2022-08-28T00:04:54.974Z,5.95
2022-08-28T00:07:21.847Z,5.87
2022-08-28T00:09:48.725Z,6.20
2022-08-28T00:12:15.659Z,6.28
2022-08-28T00:14:42.526Z,6.18
2022-08-28T00:17:09.325Z,6.00
2022-08-28T00:19:38.683Z,5.80
2022-08-28T00:22:06.800Z,5.50
2022-08-28T00:24:34.747Z,6.00
2022-08-28T00:27:01.685Z,5.82
2022-08-28T00:29:29.128Z,5.90
2022-08-28T00:31:56.303Z,5.90
2022-08-28T00:34:28.521Z,6.35
2022-08-28T00:37:00.893Z,6.00
2022-08-28T00:39:28.421Z,5.97
2022-08-28T00:41:57.863Z,5.68
2022-08-28T00:44:27.285Z,5.90
2022-08-28T00:46:56.113Z,6.18
2022-08-28T00:49:32.679Z,5.90
2022-08-28T00:52:03.814Z,6.55
2022-08-28T00:54:59.630Z,5.93
2022-08-28T00:57:32.618Z,6.23
2022-08-28T00:59:59.567Z,6.43
2022-08-28T01:02:26.601Z,7.07
2022-08-28T01:04:54.661Z,5.90
2022-08-28T01:07:21.742Z,6.07
2022-08-28T01:09:50.787Z,6.50
2022-08-28T01:12:30.266Z,6.57
2022-08-28T01:15:02.494Z,6.55
2022-08-28T01:17:34.038Z,5.80
2022-08-28T01:20:07.132Z,6.57
2022-08-28T01:22:34.017Z,5.97
2022-08-28T01:25:03.215Z,6.20
2022-08-28T01:27:30.064Z,6.47
2022-08-28T01:29:56.970Z,6.50
2022-08-28T01:32:31.919Z,6.28
2022-08-28T01:34:59.641Z,5.90
2022-08-28T01:37:26.575Z,6.22
2022-08-28T01:39:53.487Z,6.03
2022-08-28T01:42:20.847Z,7.07
2022-08-28T01:44:47.727Z,6.72
2022-08-28T01:47:14.701Z,6.87
2022-08-28T01:49:41.582Z,6.38
2022-08-28T01:52:08.556Z,6.47
2022-08-28T01:54:39.076Z,6.20
2022-08-28T01:57:06.383Z,6.35
2022-08-28T01:59:33.539Z,6.17
2022-08-28T02:02:00.698Z,6.80
2022-08-28T02:04:31.688Z,5.75
2022-08-28T02:06:59.423Z,6.55
2022-08-28T02:09:26.381Z,6.63
2022-08-28T02:11:53.225Z,6.03
2022-08-28T02:14:20.050Z,5.97
2022-08-28T02:16:47.090Z,6.20
2022-08-28T02:19:14.149Z,6.45
2022-08-28T02:21:40.985Z,6.45
2022-08-28T02:24:08.157Z,6.70
2022-08-28T02:26:35.178Z,6.07
2022-08-28T02:29:02.023Z,6.30
2022-08-28T02:31:29.017Z,6.65
2022-08-28T02:33:55.941Z,6.72
2022-08-28T02:36:23.505Z,6.57
2022-08-28T02:38:55.365Z,6.47
2022-08-28T02:41:24.335Z,7.60
2022-08-28T02:43:51.207Z,6.47
2022-08-28T02:46:18.274Z,6.50
2022-08-28T02:48:45.109Z,7.73
2022-08-28T02:51:13.679Z,7.47
2022-08-28T02:53:41.715Z,7.10
2022-08-28T02:56:09.088Z,6.55
2022-08-28T02:58:36.441Z,6.78
2022-08-28T03:01:06.745Z,6.57
2022-08-28T03:03:34.387Z,6.80
2022-08-28T03:06:02.728Z,6.72
2022-08-28T03:08:30.420Z,6.65
2022-08-28T03:10:57.276Z,6.30
2022-08-28T03:13:27.015Z,6.90
2022-08-28T03:15:55.776Z,7.00
2022-08-28T03:18:24.345Z,7.30
2022-08-28T03:20:52.608Z,7.28
2022-08-28T03:23:19.531Z,6.90
2022-08-28T03:25:46.377Z,6.23
2022-08-28T03:28:13.295Z,6.70
2022-08-28T03:30:40.436Z,7.05
2022-08-28T03:33:07.336Z,6.93
2022-08-28T03:35:37.379Z,7.35
2022-08-28T03:38:05.141Z,7.60
2022-08-28T03:40:32.195Z,7.30
2022-08-28T03:42:59.091Z,7.43
2022-08-28T03:45:26.506Z,6.30
2022-08-28T03:47:53.570Z,6.65
2022-08-28T03:50:20.634Z,7.10
2022-08-28T03:52:47.747Z,6.82
2022-08-28T03:55:15.046Z,6.90
2022-08-28T03:57:41.871Z,6.70
2022-08-28T04:00:11.962Z,6.80
2022-08-28T04:02:42.456Z,6.30
2022-08-28T04:05:10.510Z,6.30
2022-08-28T04:07:39.718Z,6.53
2022-08-28T04:10:07.368Z,6.57
2022-08-28T04:12:34.488Z,6.95
2022-08-28T04:15:02.427Z,6.17
2022-08-28T04:17:29.313Z,6.35
2022-08-28T04:19:56.265Z,5.93
2022-08-28T04:22:23.618Z,6.40
2022-08-28T04:24:50.604Z,6.35
2022-08-28T04:27:17.513Z,6.57
2022-08-28T04:29:44.425Z,7.25
2022-08-28T04:32:11.330Z,7.30
2022-08-28T04:34:38.596Z,7.00
2022-08-28T04:37:05.689Z,7.10
2022-08-28T04:39:33.588Z,7.33
2022-08-28T04:42:00.858Z,7.45
2022-08-28T04:44:28.055Z,7.40
2022-08-28T04:46:54.951Z,7.03
2022-08-28T04:49:25.842Z,7.10
2022-08-28T04:51:53.013Z,6.47
2022-08-28T04:54:20.565Z,6.93
2022-08-28T04:56:47.457Z,7.22
2022-08-28T04:59:14.498Z,7.45
2022-08-28T05:01:42.485Z,7.13
2022-08-28T05:04:11.070Z,7.00
2022-08-28T05:06:39.299Z,6.95
2022-08-28T05:09:06.159Z,6.60
2022-08-28T05:11:34.869Z,6.85
2022-08-28T05:14:04.875Z,6.97
2022-08-28T05:16:32.551Z,7.13
2022-08-28T05:19:03.123Z,6.10
2022-08-28T05:21:29.999Z,6.90
2022-08-28T05:23:58.048Z,6.13
2022-08-28T05:26:26.771Z,6.72
2022-08-28T05:28:56.964Z,7.30
2022-08-28T05:31:26.142Z,7.40
2022-08-28T05:33:53.923Z,6.00
2022-08-28T05:36:23.446Z,6.85
2022-08-28T05:38:56.570Z,6.88
2022-08-28T05:41:26.469Z,6.70
2022-08-28T05:43:53.672Z,6.43
2022-08-28T05:46:21.814Z,6.72
2022-08-28T05:48:48.787Z,6.43
2022-08-28T05:51:19.111Z,6.68
2022-08-28T05:53:47.714Z,6.43
2022-08-28T05:56:18.281Z,6.93
2022-08-28T05:58:45.453Z,6.40
2022-08-28T06:01:18.073Z,7.20
2022-08-28T06:03:51.316Z,6.93
2022-08-28T06:06:18.471Z,6.83
2022-08-28T06:08:58.324Z,6.70
2022-08-28T06:11:31.121Z,6.70
2022-08-28T06:14:02.686Z,6.13
2022-08-28T06:16:32.020Z,6.53
2022-08-28T06:19:00.216Z,6.80
2022-08-28T06:21:27.089Z,6.38
2022-08-28T06:23:54.201Z,6.20
2022-08-28T06:26:21.126Z,6.32
2022-08-28T06:28:48.155Z,6.85
2022-08-28T06:31:24.732Z,6.60
2022-08-28T06:33:58.501Z,5.90
2022-08-28T06:36:27.269Z,6.30
2022-08-28T06:38:55.269Z,6.93
2022-08-28T06:41:22.259Z,6.32
2022-08-28T06:43:49.174Z,6.37
2022-08-28T06:46:18.206Z,6.50
2022-08-28T06:48:45.095Z,6.35
2022-08-28T06:51:13.576Z,7.20
2022-08-28T06:53:42.393Z,6.70
2022-08-28T06:56:27.371Z,6.50
2022-08-28T06:58:56.576Z,6.65
2022-08-28T07:01:30.454Z,6.20
2022-08-28T07:04:01.091Z,7.57
2022-08-28T07:06:31.307Z,6.30
2022-08-28T07:09:01.519Z,6.83
2022-08-28T07:11:31.107Z,7.15
2022-08-28T07:13:58.808Z,6.55
2022-08-28T07:16:30.328Z,6.60
2022-08-28T07:18:58.476Z,6.63
2022-08-28T07:21:26.200Z,6.37
2022-08-28T07:23:53.058Z,6.90
2022-08-28T07:26:23.435Z,6.03
2022-08-28T07:28:51.797Z,6.55
2022-08-28T07:31:25.091Z,5.93
2022-08-28T07:33:53.864Z,6.03
2022-08-28T07:36:29.253Z,6.05
2022-08-28T07:38:58.486Z,6.15
2022-08-28T07:41:28.828Z,5.95
2022-08-28T07:43:55.881Z,6.07
2022-08-28T07:46:22.885Z,6.40
2022-08-28T07:48:49.754Z,6.20
2022-08-28T07:51:16.572Z,6.10
2022-08-28T07:53:43.647Z,5.75
2022-08-28T07:56:10.552Z,6.40
2022-08-28T07:58:38.236Z,6.43
2022-08-28T08:01:05.460Z,6.18
2022-08-28T08:03:32.475Z,6.55
2022-08-28T08:06:02.743Z,5.57
2022-08-28T08:08:34.225Z,5.50
2022-08-28T08:11:04.779Z,6.00
2022-08-28T08:13:33.498Z,6.05
2022-08-28T08:16:12.719Z,5.50
2022-08-28T08:18:41.667Z,5.47
2022-08-28T08:21:11.458Z,5.15
2022-08-28T08:23:38.972Z,5.30
2022-08-28T08:26:08.906Z,4.90
2022-08-28T08:28:37.406Z,4.90
2022-08-28T08:31:14.208Z,5.05
2022-08-28T08:33:43.407Z,5.70
2022-08-28T08:36:12.164Z,4.43
2022-08-28T08:38:39.353Z,3.90
2022-08-28T08:41:26.650Z,3.78
2022-08-28T08:44:06.456Z,3.90
2022-08-28T08:46:42.766Z,3.20
2022-08-28T08:49:18.973Z,3.50
2022-08-28T08:52:13.318Z,3.40
2022-08-28T08:54:55.400Z,3.78
2022-08-28T08:57:24.465Z,5.68
2022-08-28T08:59:51.400Z,5.30
2022-08-28T09:02:31.360Z,4.63
2022-08-28T09:05:12.907Z,3.58
2022-08-28T09:07:53.049Z,3.42
2022-08-28T09:10:20.231Z,4.28
2022-08-28T09:13:14.578Z,3.85
2022-08-28T09:15:47.518Z,3.60
2022-08-28T09:18:24.917Z,3.75
2022-08-28T09:20:54.752Z,4.00
2022-08-28T09:23:24.216Z,3.60
2022-08-28T09:26:01.750Z,4.07
2022-08-28T09:28:35.758Z,4.50
2022-08-28T09:31:09.323Z,4.05
2022-08-28T09:33:46.757Z,4.40
2022-08-28T09:36:34.600Z,4.70
2022-08-28T09:39:21.237Z,4.20
2022-08-28T09:42:14.214Z,4.40
2022-08-28T09:44:53.162Z,4.20
2022-08-28T09:47:58.468Z,3.95
2022-08-28T09:50:37.052Z,3.90
2022-08-28T09:53:09.674Z,4.10
2022-08-28T09:55:51.501Z,4.40
2022-08-28T09:58:21.321Z,5.15
2022-08-28T10:00:59.746Z,4.00
2022-08-28T10:03:34.045Z,4.50
2022-08-28T10:06:15.131Z,4.50
2022-08-28T10:08:54.843Z,4.30
2022-08-28T10:11:59.354Z,4.25
2022-08-28T10:14:44.201Z,4.20
2022-08-28T10:17:29.118Z,4.43
2022-08-28T10:20:22.344Z,4.10
2022-08-28T10:23:04.686Z,4.60
2022-08-28T10:25:52.712Z,4.03
2022-08-28T10:29:04.416Z,4.05
2022-08-28T10:31:32.120Z,4.15
2022-08-28T10:34:15.325Z,3.63
2022-08-28T10:36:47.465Z,3.67
2022-08-28T10:39:20.300Z,4.00
2022-08-28T10:41:54.257Z,3.53
2022-08-28T10:44:40.814Z,3.22
2022-08-28T10:47:08.931Z,3.75
2022-08-28T10:49:40.851Z,3.20
2022-08-28T10:52:11.854Z,3.00
2022-08-28T10:54:46.245Z,2.70
2022-08-28T10:57:39.517Z,3.15
2022-08-28T11:00:16.205Z,3.10
2022-08-28T11:02:58.513Z,3.60
2022-08-28T11:05:41.402Z,3.47
2022-08-28T11:08:20.193Z,3.67
2022-08-28T11:10:51.923Z,3.70
2022-08-28T11:13:47.621Z,3.53
2022-08-28T11:16:25.509Z,3.73
2022-08-28T11:19:28.847Z,3.55
2022-08-28T11:22:02.748Z,3.13
2022-08-28T11:24:39.565Z,3.40
2022-08-28T11:27:39.846Z,3.70
2022-08-28T11:30:09.645Z,3.57
2022-08-28T11:32:51.354Z,3.50
2022-08-28T11:35:21.525Z,4.18
2022-08-28T11:37:51.427Z,3.20
2022-08-28T11:40:55.697Z,3.60
2022-08-28T11:43:22.431Z,3.63
2022-08-28T11:45:55.039Z,3.70
2022-08-28T11:48:34.188Z,3.80
2022-08-28T11:51:07.921Z,3.70
2022-08-28T11:53:58.973Z,3.83
2022-08-28T11:57:01.541Z,3.60
2022-08-28T11:59:47.515Z,4.32
2022-08-28T12:02:36.134Z,3.60
2022-08-28T12:05:10.375Z,3.80
2022-08-28T12:07:40.045Z,3.95
2022-08-28T12:10:30.274Z,3.87
2022-08-28T12:12:58.569Z,4.63
2022-08-28T12:15:28.518Z,4.40
2022-08-28T12:18:03.604Z,3.50
2022-08-28T12:20:48.801Z,3.78
2022-08-28T12:23:30.954Z,3.60
2022-08-28T12:26:20.980Z,3.40
2022-08-28T12:28:52.851Z,3.22
2022-08-28T12:31:56.976Z,3.45
2022-08-28T12:34:50.805Z,4.28
2022-08-28T12:37:39.890Z,4.10
2022-08-28T12:40:28.625Z,4.97
2022-08-28T12:43:04.938Z,4.50
2022-08-28T12:45:34.893Z,4.75
2022-08-28T12:48:09.475Z,4.30
2022-08-28T12:50:39.132Z,4.00
2022-08-28T12:53:11.940Z,4.70
2022-08-28T12:55:40.367Z,4.28
2022-08-28T12:58:33.770Z,4.97
2022-08-28T13:01:07.971Z,4.10
2022-08-28T13:03:41.826Z,3.90
2022-08-28T13:06:09.031Z,5.25
2022-08-28T13:08:37.814Z,4.22
2022-08-28T13:11:05.031Z,5.25
2022-08-28T13:13:44.912Z,5.20
2022-08-28T13:16:13.526Z,5.30
2022-08-28T13:18:51.371Z,4.93
2022-08-28T13:21:32.515Z,4.53
2022-08-28T13:24:21.437Z,4.15
2022-08-28T13:27:14.343Z,3.75
2022-08-28T13:29:57.302Z,4.00
2022-08-28T13:32:27.544Z,4.43
2022-08-28T13:35:09.889Z,4.30
2022-08-28T13:37:47.129Z,4.40
2022-08-28T13:40:45.813Z,3.60
2022-08-28T13:43:07.346Z,3.80
2022-08-28T13:45:43.188Z,3.55
2022-08-28T13:48:16.288Z,3.50
2022-08-28T13:50:47.283Z,3.17
2022-08-28T13:53:17.039Z,3.40
2022-08-28T13:55:44.956Z,3.70
2022-08-28T13:58:11.932Z,5.03
2022-08-28T14:11:07.408Z,4.33
2022-08-28T14:13:34.646Z,4.40
2022-08-28T14:16:05.194Z,4.30
2022-08-28T14:18:32.557Z,4.13
2022-08-28T14:20:59.507Z,4.10
2022-08-28T14:23:26.609Z,4.17
2022-08-28T14:25:53.559Z,4.70
2022-08-28T14:28:20.459Z,4.00
2022-08-28T14:30:50.102Z,3.75
2022-08-28T14:33:18.058Z,4.00
2022-08-28T14:35:46.555Z,3.70
2022-08-28T14:38:13.555Z,3.90
2022-08-28T14:40:42.671Z,3.65
2022-08-28T14:43:12.019Z,3.80
2022-08-28T14:45:46.594Z,3.70
2022-08-28T14:48:14.657Z,4.00
2022-08-28T14:50:43.741Z,3.78
2022-08-28T14:53:10.866Z,3.65
2022-08-28T14:55:48.693Z,3.90
2022-08-28T14:58:17.364Z,3.97
2022-08-28T15:00:47.997Z,3.60
2022-08-28T15:03:15.916Z,3.38
2022-08-28T15:05:43.008Z,3.33
2022-08-28T15:08:12.520Z,3.13
2022-08-28T15:10:43.279Z,2.70
2022-08-28T15:13:11.241Z,2.20
2022-08-28T15:15:39.769Z,2.88
2022-08-28T15:18:07.916Z,2.80
2022-08-28T15:20:44.398Z,2.85
2022-08-28T15:23:13.556Z,2.40
2022-08-28T15:25:41.065Z,1.90
2022-08-28T15:28:08.011Z,2.10
2022-08-28T15:30:35.166Z,2.15
2022-08-28T15:33:01.993Z,2.03
2022-08-28T15:35:28.956Z,2.10
2022-08-28T15:37:55.824Z,2.30
2022-08-28T15:40:22.887Z,2.65
2022-08-28T15:42:49.836Z,2.55
2022-08-28T15:45:16.710Z,3.15
2022-08-28T15:47:44.112Z,2.78
2022-08-28T15:50:11.451Z,2.73
2022-08-28T15:52:38.662Z,3.30
2022-08-28T15:55:05.805Z,3.10
2022-08-28T15:57:33.252Z,3.25
2022-08-28T16:00:00.186Z,3.03
2022-08-28T16:02:27.121Z,3.30
2022-08-28T16:04:54.542Z,3.17
2022-08-28T16:07:22.617Z,3.20
2022-08-28T16:09:49.964Z,3.28
2022-08-28T16:12:17.801Z,3.97
2022-08-28T16:14:45.025Z,3.40
2022-08-28T16:17:12.190Z,3.75
2022-08-28T16:19:40.409Z,3.83
2022-08-28T16:22:08.797Z,3.60
2022-08-28T16:24:35.701Z,4.35
2022-08-28T16:27:02.833Z,3.40
2022-08-28T16:29:29.652Z,3.42
2022-08-28T16:31:56.614Z,2.90
2022-08-28T16:34:27.078Z,3.28
2022-08-28T16:36:56.303Z,2.80
2022-08-28T16:39:23.242Z,3.17
2022-08-28T16:41:50.131Z,2.90
2022-08-28T16:44:21.898Z,2.70
2022-08-28T16:46:49.340Z,2.70
2022-08-28T16:49:16.243Z,2.70
2022-08-28T16:51:43.225Z,2.43
2022-08-28T16:54:10.594Z,2.65
2022-08-28T16:56:37.541Z,2.30
2022-08-28T16:59:10.488Z,2.20
2022-08-28T17:01:40.734Z,2.30
2022-08-28T17:04:07.915Z,2.30
2022-08-28T17:06:34.822Z,1.95
2022-08-28T17:09:01.914Z,2.08
2022-08-28T17:11:28.958Z,1.95
2022-08-28T17:13:56.297Z,2.20
2022-08-28T17:16:24.001Z,2.40
2022-08-28T17:18:52.578Z,2.40
2022-08-28T17:21:20.879Z,2.13
2022-08-28T17:23:47.989Z,2.60
2022-08-28T17:26:14.946Z,2.50
2022-08-28T17:28:42.903Z,2.50
2022-08-28T17:31:10.536Z,2.30
2022-08-28T17:33:39.551Z,2.22
2022-08-28T17:36:07.787Z,2.70
2022-08-28T17:38:48.335Z,2.30
2022-08-28T17:41:15.271Z,2.20
2022-08-28T17:43:42.147Z,2.45
2022-08-28T17:46:09.085Z,2.53
2022-08-28T17:48:37.422Z,2.50
2022-08-28T17:51:05.265Z,2.60
2022-08-28T17:53:32.348Z,2.80
2022-08-28T17:55:59.173Z,3.03
2022-08-28T17:58:26.059Z,2.85
2022-08-28T18:00:52.943Z,2.88
2022-08-28T18:03:19.836Z,3.05
2022-08-28T18:05:46.718Z,3.47
2022-08-28T18:08:13.858Z,3.15
2022-08-28T18:10:40.743Z,3.30
2022-08-28T18:13:07.625Z,3.13
2022-08-28T18:15:34.994Z,3.10
2022-08-28T18:18:03.932Z,3.20
2022-08-28T18:20:30.822Z,3.58
2022-08-28T18:22:57.788Z,3.72
2022-08-28T18:25:24.714Z,3.10
2022-08-28T18:27:51.558Z,3.20
2022-08-28T18:30:18.590Z,2.70
2022-08-28T18:32:45.420Z,3.30
2022-08-28T18:35:12.378Z,3.30
2022-08-28T18:37:39.338Z,3.40
2022-08-28T18:40:06.524Z,3.10
2022-08-28T18:42:33.407Z,3.30
2022-08-28T18:45:00.317Z,3.30
2022-08-28T18:47:27.240Z,3.40
2022-08-28T18:49:54.074Z,3.25
2022-08-28T18:52:20.959Z,3.40
2022-08-28T18:54:49.512Z,3.33
2022-08-28T18:57:17.308Z,2.92
2022-08-28T18:59:47.105Z,2.90
2022-08-28T19:02:15.268Z,2.63
2022-08-28T19:04:42.407Z,2.30
2022-08-28T19:07:09.782Z,2.40
2022-08-28T19:09:36.843Z,2.40
2022-08-28T19:12:04.552Z,2.50
2022-08-28T19:14:32.532Z,2.10
2022-08-28T19:17:00.339Z,2.78
2022-08-28T19:19:28.366Z,2.90
2022-08-28T19:21:56.088Z,3.10
2022-08-28T19:24:23.095Z,3.38
2022-08-28T19:26:50.090Z,2.80
2022-08-28T19:29:17.052Z,3.15
2022-08-28T19:31:43.929Z,3.43
2022-08-28T19:34:11.385Z,3.33
2022-08-28T19:36:38.396Z,3.40
2022-08-28T19:39:06.029Z,3.97
2022-08-28T19:41:32.871Z,3.90
2022-08-28T19:44:00.177Z,3.70
2022-08-28T19:46:27.036Z,3.75
2022-08-28T19:48:54.185Z,3.90
2022-08-28T19:51:24.144Z,3.83
2022-08-28T19:53:58.381Z,3.70
2022-08-28T19:56:29.690Z,4.03
2022-08-28T19:58:58.593Z,3.90
2022-08-28T20:01:35.747Z,3.80
2022-08-28T20:04:03.131Z,4.13
2022-08-28T20:06:34.632Z,4.80
2022-08-28T20:09:02.610Z,3.90
2022-08-28T20:11:30.563Z,4.18
2022-08-28T20:14:00.171Z,4.00
2022-08-28T20:16:28.272Z,3.80
2022-08-28T20:18:55.421Z,3.92
2022-08-28T20:21:25.888Z,3.80
2022-08-28T20:24:06.533Z,4.20
2022-08-28T20:26:33.464Z,4.10
2022-08-28T20:29:00.322Z,4.45
2022-08-28T20:31:27.385Z,4.00
2022-08-28T20:33:54.285Z,3.90
2022-08-28T20:36:21.541Z,4.15
2022-08-28T20:38:48.724Z,4.05
2022-08-28T20:41:18.305Z,3.85
2022-08-28T20:43:46.698Z,3.63
2022-08-28T20:46:14.993Z,4.10
2022-08-28T20:48:42.148Z,3.80
2022-08-28T20:51:09.750Z,4.32
2022-08-28T20:53:38.959Z,3.70
2022-08-28T20:56:08.973Z,4.03
2022-08-28T20:58:36.216Z,3.80
2022-08-28T21:01:03.465Z,4.07
2022-08-28T21:03:30.386Z,3.90
2022-08-28T21:05:57.215Z,3.58
2022-08-28T21:08:24.178Z,3.70
2022-08-28T21:10:52.728Z,3.90
2022-08-28T21:13:19.680Z,3.47
2022-08-28T21:15:46.608Z,3.70
2022-08-28T21:18:13.587Z,4.50
2022-08-28T21:20:40.887Z,3.53
2022-08-28T21:23:07.851Z,3.83
2022-08-28T21:25:34.685Z,3.70
2022-08-28T21:28:04.178Z,4.20
2022-08-28T21:30:31.751Z,3.92
2022-08-28T21:32:58.714Z,4.00
2022-08-28T21:35:25.877Z,4.40
2022-08-28T21:37:52.916Z,4.35
2022-08-28T21:40:20.104Z,4.68
2022-08-28T21:42:47.198Z,4.13
2022-08-28T21:45:14.291Z,4.70
2022-08-28T21:47:42.017Z,4.43
2022-08-28T21:50:09.496Z,4.57
2022-08-28T21:52:36.637Z,4.20
2022-08-28T21:55:08.675Z,4.35
2022-08-28T21:57:35.529Z,4.60
2022-08-28T22:00:03.344Z,4.60
2022-08-28T22:02:30.243Z,4.55
2022-08-28T22:04:57.150Z,4.63
2022-08-28T22:07:24.973Z,4.50
2022-08-28T22:09:51.820Z,4.32
2022-08-28T22:24:51.721Z,6.72
2022-08-28T22:27:18.755Z,6.27
2022-08-28T22:29:45.580Z,6.25
2022-08-28T22:32:12.523Z,6.80
2022-08-28T22:34:44.225Z,5.80
2022-08-28T22:37:12.411Z,5.15
2022-08-28T22:39:40.319Z,5.47
2022-08-28T22:42:07.673Z,5.90
2022-08-28T22:44:35.047Z,6.00
2022-08-28T22:47:02.509Z,6.78
2022-08-28T22:49:29.300Z,7.18
2022-08-28T22:51:56.127Z,6.40
2022-08-28T22:54:23.038Z,6.57
2022-08-28T22:56:49.879Z,7.18
2022-08-28T22:59:16.815Z,6.72
2022-08-28T23:01:43.736Z,6.50
2022-08-28T23:04:11.429Z,6.50
2022-08-28T23:06:38.384Z,6.10
2022-08-28T23:09:05.954Z,7.38
2022-08-28T23:11:33.433Z,8.25
2022-08-28T23:14:00.631Z,6.70
2022-08-28T23:16:27.677Z,7.23
2022-08-28T23:19:08.722Z,6.43
2022-08-28T23:21:43.446Z,6.80
2022-08-28T23:24:11.937Z,6.55
2022-08-28T23:26:38.867Z,6.65
2022-08-28T23:29:05.860Z,5.73
2022-08-28T23:31:32.861Z,6.30
2022-08-28T23:34:00.114Z,6.30
2022-08-28T23:36:27.325Z,5.45
2022-08-28T23:38:54.309Z,6.53
2022-08-28T23:41:21.419Z,5.93
2022-08-28T23:43:48.946Z,5.93
2022-08-28T23:46:17.241Z,6.55
2022-08-28T23:48:45.221Z,7.20
2022-08-28T23:51:13.508Z,7.13
2022-08-28T23:53:42.232Z,6.87
2022-08-28T23:56:09.686Z,6.68
2022-08-28T23:58:36.562Z,7.75
